sensor_id;sensor_type;location;lat;lon;timestamp;P1;durP1;ratioP1;P2;durP2;ratioP2
55003;SDS011;40900;52.710;6.438;2023-02-23T00:00:26;123.70;;;65.82;;
55003;SDS011;40900;52.710;6.438;2023-02-23T00:02:54;114.97;;;65.38;;
55003;SDS011;40900;52.710;6.438;2023-02-23T00:05:23;114.15;;;62.95;;
55003;SDS011;40900;52.710;6.438;2023-02-23T00:07:50;120.43;;;64.97;;
55003;SDS011;40900;52.710;6.438;2023-02-23T00:10:16;114.88;;;66.88;;
55003;SDS011;40900;52.710;6.438;2023-02-23T00:12:43;112.65;;;65.35;;
55003;SDS011;40900;52.710;6.438;2023-02-23T00:15:09;123.50;;;66.95;;
55003;SDS011;40900;52.710;6.438;2023-02-23T00:17:36;116.57;;;64.35;;
55003;SDS011;40900;52.710;6.438;2023-02-23T00:20:05;118.55;;;66.35;;
55003;SDS011;40900;52.710;6.438;2023-02-23T00:22:36;116.65;;;67.05;;
55003;SDS011;40900;52.710;6.438;2023-02-23T00:25:06;117.53;;;67.05;;
55003;SDS011;40900;52.710;6.438;2023-02-23T00:27:33;122.07;;;68.35;;
55003;SDS011;40900;52.710;6.438;2023-02-23T00:30:00;124.18;;;67.53;;
55003;SDS011;40900;52.710;6.438;2023-02-23T00:32:26;119.30;;;66.68;;
55003;SDS011;40900;52.710;6.438;2023-02-23T00:34:51;117.97;;;68.20;;
55003;SDS011;40900;52.710;6.438;2023-02-23T00:37:18;114.18;;;64.65;;
55003;SDS011;40900;52.710;6.438;2023-02-23T00:39:46;125.43;;;69.15;;
55003;SDS011;40900;52.710;6.438;2023-02-23T00:42:11;117.13;;;65.40;;
55003;SDS011;40900;52.710;6.438;2023-02-23T00:44:37;121.10;;;67.82;;
55003;SDS011;40900;52.710;6.438;2023-02-23T00:47:05;112.68;;;62.60;;
55003;SDS011;40900;52.710;6.438;2023-02-23T00:49:31;119.82;;;67.32;;
55003;SDS011;40900;52.710;6.438;2023-02-23T00:51:57;120.97;;;67.32;;
55003;SDS011;40900;52.710;6.438;2023-02-23T00:54:23;118.60;;;65.78;;
55003;SDS011;40900;52.710;6.438;2023-02-23T00:56:49;118.65;;;65.45;;
55003;SDS011;40900;52.710;6.438;2023-02-23T00:59:16;122.05;;;68.13;;
55003;SDS011;40900;52.710;6.438;2023-02-23T01:01:42;119.15;;;65.57;;
55003;SDS011;40900;52.710;6.438;2023-02-23T01:04:09;127.75;;;67.97;;
55003;SDS011;40900;52.710;6.438;2023-02-23T01:06:36;111.57;;;66.60;;
55003;SDS011;40900;52.710;6.438;2023-02-23T01:09:05;124.68;;;68.38;;
55003;SDS011;40900;52.710;6.438;2023-02-23T01:11:40;121.75;;;67.00;;
55003;SDS011;40900;52.710;6.438;2023-02-23T01:14:06;129.15;;;67.50;;
55003;SDS011;40900;52.710;6.438;2023-02-23T01:16:33;115.25;;;65.18;;
55003;SDS011;40900;52.710;6.438;2023-02-23T01:19:00;131.52;;;69.80;;
55003;SDS011;40900;52.710;6.438;2023-02-23T01:21:28;122.50;;;67.70;;
55003;SDS011;40900;52.710;6.438;2023-02-23T01:23:59;113.07;;;64.80;;
55003;SDS011;40900;52.710;6.438;2023-02-23T01:26:36;130.95;;;69.22;;
55003;SDS011;40900;52.710;6.438;2023-02-23T01:29:04;122.53;;;67.30;;
55003;SDS011;40900;52.710;6.438;2023-02-23T01:31:35;126.40;;;68.22;;
55003;SDS011;40900;52.710;6.438;2023-02-23T01:34:03;130.45;;;68.53;;
55003;SDS011;40900;52.710;6.438;2023-02-23T01:36:32;136.85;;;69.88;;
55003;SDS011;40900;52.710;6.438;2023-02-23T01:38:59;144.63;;;69.78;;
55003;SDS011;40900;52.710;6.438;2023-02-23T01:41:25;130.32;;;68.40;;
55003;SDS011;40900;52.710;6.438;2023-02-23T01:44:03;127.60;;;66.63;;
55003;SDS011;40900;52.710;6.438;2023-02-23T01:46:34;136.50;;;69.30;;
55003;SDS011;40900;52.710;6.438;2023-02-23T01:49:03;147.63;;;70.57;;
55003;SDS011;40900;52.710;6.438;2023-02-23T01:51:42;145.23;;;71.03;;
55003;SDS011;40900;52.710;6.438;2023-02-23T01:54:13;143.30;;;72.68;;
55003;SDS011;40900;52.710;6.438;2023-02-23T01:56:43;156.18;;;74.57;;
55003;SDS011;40900;52.710;6.438;2023-02-23T01:59:13;136.73;;;67.72;;
55003;SDS011;40900;52.710;6.438;2023-02-23T02:01:40;142.35;;;72.22;;
55003;SDS011;40900;52.710;6.438;2023-02-23T02:04:07;135.30;;;68.05;;
55003;SDS011;40900;52.710;6.438;2023-02-23T02:06:40;139.50;;;71.10;;
55003;SDS011;40900;52.710;6.438;2023-02-23T02:09:09;141.18;;;70.32;;
55003;SDS011;40900;52.710;6.438;2023-02-23T02:11:41;137.15;;;69.65;;
55003;SDS011;40900;52.710;6.438;2023-02-23T02:14:17;147.60;;;69.82;;
55003;SDS011;40900;52.710;6.438;2023-02-23T02:16:49;132.80;;;66.60;;
55003;SDS011;40900;52.710;6.438;2023-02-23T02:19:52;147.77;;;72.28;;
55003;SDS011;40900;52.710;6.438;2023-02-23T02:31:24;135.90;;;69.72;;
55003;SDS011;40900;52.710;6.438;2023-02-23T02:37:01;141.95;;;68.80;;
55003;SDS011;40900;52.710;6.438;2023-02-23T02:39:41;127.13;;;65.80;;
55003;SDS011;40900;52.710;6.438;2023-02-23T02:45:06;126.97;;;64.38;;
55003;SDS011;40900;52.710;6.438;2023-02-23T02:47:53;125.93;;;63.30;;
55003;SDS011;40900;52.710;6.438;2023-02-23T02:50:48;130.10;;;66.28;;
55003;SDS011;40900;52.710;6.438;2023-02-23T02:56:43;133.27;;;67.47;;
55003;SDS011;40900;52.710;6.438;2023-02-23T02:59:15;122.72;;;62.30;;
55003;SDS011;40900;52.710;6.438;2023-02-23T03:02:02;142.27;;;67.13;;
55003;SDS011;40900;52.710;6.438;2023-02-23T03:04:48;142.15;;;66.47;;
55003;SDS011;40900;52.710;6.438;2023-02-23T03:07:39;138.55;;;66.82;;
55003;SDS011;40900;52.710;6.438;2023-02-23T03:11:13;133.23;;;66.65;;
55003;SDS011;40900;52.710;6.438;2023-02-23T03:16:55;126.27;;;63.93;;
55003;SDS011;40900;52.710;6.438;2023-02-23T03:19:51;136.57;;;65.85;;
55003;SDS011;40900;52.710;6.438;2023-02-23T03:22:57;130.15;;;62.50;;
55003;SDS011;40900;52.710;6.438;2023-02-23T03:25:50;128.38;;;63.47;;
55003;SDS011;40900;52.710;6.438;2023-02-23T03:28:54;137.75;;;64.47;;
55003;SDS011;40900;52.710;6.438;2023-02-23T03:32:32;125.57;;;61.30;;
55003;SDS011;40900;52.710;6.438;2023-02-23T03:35:26;135.35;;;62.67;;
55003;SDS011;40900;52.710;6.438;2023-02-23T03:38:27;122.53;;;61.58;;
55003;SDS011;40900;52.710;6.438;2023-02-23T03:41:13;135.43;;;63.15;;
55003;SDS011;40900;52.710;6.438;2023-02-23T03:44:11;122.07;;;62.55;;
55003;SDS011;40900;52.710;6.438;2023-02-23T03:47:00;133.05;;;63.85;;
55003;SDS011;40900;52.710;6.438;2023-02-23T03:49:48;128.15;;;62.97;;
55003;SDS011;40900;52.710;6.438;2023-02-23T03:52:39;137.57;;;63.80;;
55003;SDS011;40900;52.710;6.438;2023-02-23T03:55:28;120.57;;;61.17;;
55003;SDS011;40900;52.710;6.438;2023-02-23T03:58:17;119.47;;;61.35;;
55003;SDS011;40900;52.710;6.438;2023-02-23T04:01:07;118.95;;;59.35;;
55003;SDS011;40900;52.710;6.438;2023-02-23T04:03:53;120.72;;;61.67;;
55003;SDS011;40900;52.710;6.438;2023-02-23T04:06:42;123.00;;;61.22;;
55003;SDS011;40900;52.710;6.438;2023-02-23T04:09:28;124.25;;;61.17;;
55003;SDS011;40900;52.710;6.438;2023-02-23T04:15:06;120.75;;;59.67;;
55003;SDS011;40900;52.710;6.438;2023-02-23T04:17:36;128.43;;;60.15;;
55003;SDS011;40900;52.710;6.438;2023-02-23T04:20:03;128.15;;;60.50;;
55003;SDS011;40900;52.710;6.438;2023-02-23T04:22:31;117.60;;;58.38;;
55003;SDS011;40900;52.710;6.438;2023-02-23T04:24:56;129.90;;;61.88;;
55003;SDS011;40900;52.710;6.438;2023-02-23T04:27:22;121.40;;;59.10;;
55003;SDS011;40900;52.710;6.438;2023-02-23T04:29:48;117.95;;;56.95;;
55003;SDS011;40900;52.710;6.438;2023-02-23T04:32:15;125.80;;;58.35;;
55003;SDS011;40900;52.710;6.438;2023-02-23T04:34:42;121.35;;;59.20;;
55003;SDS011;40900;52.710;6.438;2023-02-23T04:37:09;124.05;;;58.45;;
55003;SDS011;40900;52.710;6.438;2023-02-23T04:39:35;120.15;;;57.45;;
55003;SDS011;40900;52.710;6.438;2023-02-23T04:42:01;128.52;;;58.42;;
55003;SDS011;40900;52.710;6.438;2023-02-23T04:44:27;121.18;;;58.80;;
55003;SDS011;40900;52.710;6.438;2023-02-23T04:46:52;110.22;;;56.15;;
55003;SDS011;40900;52.710;6.438;2023-02-23T04:49:19;111.45;;;55.42;;
55003;SDS011;40900;52.710;6.438;2023-02-23T04:51:45;124.85;;;59.65;;
55003;SDS011;40900;52.710;6.438;2023-02-23T04:54:11;120.75;;;55.85;;
55003;SDS011;40900;52.710;6.438;2023-02-23T04:56:37;113.95;;;56.65;;
55003;SDS011;40900;52.710;6.438;2023-02-23T04:59:03;125.57;;;57.08;;
55003;SDS011;40900;52.710;6.438;2023-02-23T05:01:29;115.78;;;57.67;;
55003;SDS011;40900;52.710;6.438;2023-02-23T05:03:56;121.78;;;59.28;;
55003;SDS011;40900;52.710;6.438;2023-02-23T05:06:24;118.80;;;55.60;;
55003;SDS011;40900;52.710;6.438;2023-02-23T05:08:50;108.28;;;54.47;;
55003;SDS011;40900;52.710;6.438;2023-02-23T05:11:16;112.57;;;56.58;;
55003;SDS011;40900;52.710;6.438;2023-02-23T05:13:42;124.13;;;57.88;;
55003;SDS011;40900;52.710;6.438;2023-02-23T05:16:07;118.93;;;57.72;;
55003;SDS011;40900;52.710;6.438;2023-02-23T05:18:33;114.40;;;55.40;;
55003;SDS011;40900;52.710;6.438;2023-02-23T05:21:03;112.25;;;55.13;;
55003;SDS011;40900;52.710;6.438;2023-02-23T05:23:34;108.72;;;53.15;;
55003;SDS011;40900;52.710;6.438;2023-02-23T05:26:00;111.65;;;55.05;;
55003;SDS011;40900;52.710;6.438;2023-02-23T05:28:28;107.80;;;54.17;;
55003;SDS011;40900;52.710;6.438;2023-02-23T05:30:54;106.05;;;53.90;;
55003;SDS011;40900;52.710;6.438;2023-02-23T05:33:20;108.60;;;54.03;;
55003;SDS011;40900;52.710;6.438;2023-02-23T05:35:46;107.60;;;52.65;;
55003;SDS011;40900;52.710;6.438;2023-02-23T05:38:12;109.18;;;51.95;;
55003;SDS011;40900;52.710;6.438;2023-02-23T05:40:38;95.82;;;51.13;;
55003;SDS011;40900;52.710;6.438;2023-02-23T05:43:04;100.60;;;49.90;;
55003;SDS011;40900;52.710;6.438;2023-02-23T05:45:30;95.80;;;48.83;;
55003;SDS011;40900;52.710;6.438;2023-02-23T05:47:57;89.18;;;48.38;;
55003;SDS011;40900;52.710;6.438;2023-02-23T05:50:23;95.40;;;49.00;;
55003;SDS011;40900;52.710;6.438;2023-02-23T05:52:49;95.32;;;47.28;;
55003;SDS011;40900;52.710;6.438;2023-02-23T05:55:14;94.63;;;48.53;;
55003;SDS011;40900;52.710;6.438;2023-02-23T05:57:40;95.53;;;47.28;;
55003;SDS011;40900;52.710;6.438;2023-02-23T06:00:07;92.65;;;47.20;;
55003;SDS011;40900;52.710;6.438;2023-02-23T06:02:34;100.10;;;48.72;;
55003;SDS011;40900;52.710;6.438;2023-02-23T06:05:00;86.13;;;45.78;;
55003;SDS011;40900;52.710;6.438;2023-02-23T06:07:26;91.47;;;45.40;;
55003;SDS011;40900;52.710;6.438;2023-02-23T06:09:52;90.63;;;45.10;;
55003;SDS011;40900;52.710;6.438;2023-02-23T06:12:17;94.88;;;46.10;;
55003;SDS011;40900;52.710;6.438;2023-02-23T06:14:43;87.47;;;44.20;;
55003;SDS011;40900;52.710;6.438;2023-02-23T06:17:09;80.25;;;42.38;;
55003;SDS011;40900;52.710;6.438;2023-02-23T06:19:35;76.70;;;40.70;;
55003;SDS011;40900;52.710;6.438;2023-02-23T06:22:01;78.20;;;41.28;;
55003;SDS011;40900;52.710;6.438;2023-02-23T06:24:26;73.05;;;38.83;;
55003;SDS011;40900;52.710;6.438;2023-02-23T06:26:52;67.45;;;38.30;;
55003;SDS011;40900;52.710;6.438;2023-02-23T06:29:18;64.07;;;36.03;;
55003;SDS011;40900;52.710;6.438;2023-02-23T06:31:44;73.57;;;39.72;;
55003;SDS011;40900;52.710;6.438;2023-02-23T06:34:10;71.97;;;37.58;;
55003;SDS011;40900;52.710;6.438;2023-02-23T06:36:36;75.22;;;40.13;;
55003;SDS011;40900;52.710;6.438;2023-02-23T06:39:02;66.60;;;36.95;;
55003;SDS011;40900;52.710;6.438;2023-02-23T06:41:28;82.78;;;41.85;;
55003;SDS011;40900;52.710;6.438;2023-02-23T06:43:55;71.80;;;38.95;;
55003;SDS011;40900;52.710;6.438;2023-02-23T06:46:21;83.15;;;41.63;;
55003;SDS011;40900;52.710;6.438;2023-02-23T06:48:47;75.90;;;39.88;;
55003;SDS011;40900;52.710;6.438;2023-02-23T06:51:13;81.20;;;40.83;;
55003;SDS011;40900;52.710;6.438;2023-02-23T06:53:38;82.90;;;42.33;;
55003;SDS011;40900;52.710;6.438;2023-02-23T06:56:04;75.97;;;40.33;;
55003;SDS011;40900;52.710;6.438;2023-02-23T06:58:30;82.03;;;41.45;;
55003;SDS011;40900;52.710;6.438;2023-02-23T07:00:56;78.30;;;42.03;;
55003;SDS011;40900;52.710;6.438;2023-02-23T07:03:23;74.97;;;40.03;;
55003;SDS011;40900;52.710;6.438;2023-02-23T07:05:49;82.95;;;49.75;;
55003;SDS011;40900;52.710;6.438;2023-02-23T07:08:16;77.05;;;42.55;;
55003;SDS011;40900;52.710;6.438;2023-02-23T07:10:44;82.18;;;41.63;;
55003;SDS011;40900;52.710;6.438;2023-02-23T07:13:10;85.00;;;44.63;;
55003;SDS011;40900;52.710;6.438;2023-02-23T07:15:39;76.88;;;41.22;;
55003;SDS011;40900;52.710;6.438;2023-02-23T07:18:05;80.18;;;42.08;;
55003;SDS011;40900;52.710;6.438;2023-02-23T07:20:32;91.00;;;44.03;;
55003;SDS011;40900;52.710;6.438;2023-02-23T07:22:58;84.05;;;42.40;;
55003;SDS011;40900;52.710;6.438;2023-02-23T07:25:27;78.35;;;42.33;;
55003;SDS011;40900;52.710;6.438;2023-02-23T07:27:54;77.78;;;41.83;;
55003;SDS011;40900;52.710;6.438;2023-02-23T07:30:20;86.90;;;44.47;;
55003;SDS011;40900;52.710;6.438;2023-02-23T07:32:49;88.22;;;43.20;;
55003;SDS011;40900;52.710;6.438;2023-02-23T07:35:15;83.88;;;42.55;;
55003;SDS011;40900;52.710;6.438;2023-02-23T07:37:41;79.72;;;42.10;;
55003;SDS011;40900;52.710;6.438;2023-02-23T07:40:07;82.70;;;43.10;;
55003;SDS011;40900;52.710;6.438;2023-02-23T07:42:33;80.43;;;41.80;;
55003;SDS011;40900;52.710;6.438;2023-02-23T07:44:59;80.38;;;41.20;;
55003;SDS011;40900;52.710;6.438;2023-02-23T07:47:25;91.50;;;44.75;;
55003;SDS011;40900;52.710;6.438;2023-02-23T07:49:57;86.40;;;43.75;;
55003;SDS011;40900;52.710;6.438;2023-02-23T07:52:25;87.00;;;44.50;;
55003;SDS011;40900;52.710;6.438;2023-02-23T07:54:51;82.95;;;43.63;;
55003;SDS011;40900;52.710;6.438;2023-02-23T07:57:17;82.47;;;43.10;;
55003;SDS011;40900;52.710;6.438;2023-02-23T07:59:42;80.55;;;44.03;;
55003;SDS011;40900;52.710;6.438;2023-02-23T08:02:09;84.40;;;43.97;;
55003;SDS011;40900;52.710;6.438;2023-02-23T08:04:37;83.47;;;44.10;;
55003;SDS011;40900;52.710;6.438;2023-02-23T08:07:04;89.93;;;45.90;;
55003;SDS011;40900;52.710;6.438;2023-02-23T08:09:31;90.25;;;45.28;;
55003;SDS011;40900;52.710;6.438;2023-02-23T08:11:59;96.63;;;46.38;;
55003;SDS011;40900;52.710;6.438;2023-02-23T08:14:25;88.82;;;45.60;;
55003;SDS011;40900;52.710;6.438;2023-02-23T08:16:51;88.72;;;45.05;;
55003;SDS011;40900;52.710;6.438;2023-02-23T08:19:17;84.53;;;44.22;;
55003;SDS011;40900;52.710;6.438;2023-02-23T08:21:46;84.57;;;43.90;;
55003;SDS011;40900;52.710;6.438;2023-02-23T08:24:13;92.18;;;45.22;;
55003;SDS011;40900;52.710;6.438;2023-02-23T08:26:40;83.32;;;44.63;;
55003;SDS011;40900;52.710;6.438;2023-02-23T08:29:06;91.68;;;45.75;;
55003;SDS011;40900;52.710;6.438;2023-02-23T08:31:32;85.30;;;44.15;;
55003;SDS011;40900;52.710;6.438;2023-02-23T08:33:58;85.50;;;44.22;;
55003;SDS011;40900;52.710;6.438;2023-02-23T08:36:24;84.13;;;43.78;;
55003;SDS011;40900;52.710;6.438;2023-02-23T08:38:50;90.10;;;45.85;;
55003;SDS011;40900;52.710;6.438;2023-02-23T08:41:18;88.75;;;44.92;;
55003;SDS011;40900;52.710;6.438;2023-02-23T08:43:44;91.55;;;46.45;;
55003;SDS011;40900;52.710;6.438;2023-02-23T08:46:11;86.45;;;44.75;;
55003;SDS011;40900;52.710;6.438;2023-02-23T08:48:37;88.75;;;45.60;;
55003;SDS011;40900;52.710;6.438;2023-02-23T08:51:04;100.90;;;48.80;;
55003;SDS011;40900;52.710;6.438;2023-02-23T08:53:31;90.00;;;47.03;;
55003;SDS011;40900;52.710;6.438;2023-02-23T08:56:01;96.65;;;49.00;;
55003;SDS011;40900;52.710;6.438;2023-02-23T08:58:30;87.00;;;44.05;;
55003;SDS011;40900;52.710;6.438;2023-02-23T09:00:57;81.43;;;43.95;;
55003;SDS011;40900;52.710;6.438;2023-02-23T09:03:24;96.95;;;47.28;;
55003;SDS011;40900;52.710;6.438;2023-02-23T09:05:52;92.47;;;46.33;;
55003;SDS011;40900;52.710;6.438;2023-02-23T09:08:19;93.93;;;46.60;;
55003;SDS011;40900;52.710;6.438;2023-02-23T09:10:45;90.10;;;45.65;;
55003;SDS011;40900;52.710;6.438;2023-02-23T09:13:11;85.55;;;45.72;;
55003;SDS011;40900;52.710;6.438;2023-02-23T09:15:37;91.50;;;47.33;;
55003;SDS011;40900;52.710;6.438;2023-02-23T09:18:04;83.40;;;44.17;;
55003;SDS011;40900;52.710;6.438;2023-02-23T09:20:30;85.57;;;45.17;;
55003;SDS011;40900;52.710;6.438;2023-02-23T09:22:56;76.00;;;42.58;;
55003;SDS011;40900;52.710;6.438;2023-02-23T09:25:22;84.03;;;43.90;;
55003;SDS011;40900;52.710;6.438;2023-02-23T09:27:49;73.72;;;41.47;;
55003;SDS011;40900;52.710;6.438;2023-02-23T09:30:17;77.47;;;41.25;;
55003;SDS011;40900;52.710;6.438;2023-02-23T09:32:51;75.22;;;40.70;;
55003;SDS011;40900;52.710;6.438;2023-02-23T09:35:19;75.80;;;40.70;;
55003;SDS011;40900;52.710;6.438;2023-02-23T09:37:46;78.03;;;42.28;;
55003;SDS011;40900;52.710;6.438;2023-02-23T09:40:14;73.32;;;40.92;;
55003;SDS011;40900;52.710;6.438;2023-02-23T09:45:37;69.90;;;40.92;;
55003;SDS011;40900;52.710;6.438;2023-02-23T09:48:15;75.10;;;42.03;;
55003;SDS011;40900;52.710;6.438;2023-02-23T09:50:48;76.40;;;40.13;;
55003;SDS011;40900;52.710;6.438;2023-02-23T09:55:57;70.10;;;40.47;;
55003;SDS011;40900;52.710;6.438;2023-02-23T10:04:02;68.68;;;38.53;;
55003;SDS011;40900;52.710;6.438;2023-02-23T10:06:47;67.97;;;38.50;;
55003;SDS011;40900;52.710;6.438;2023-02-23T10:09:24;69.13;;;37.60;;
55003;SDS011;40900;52.710;6.438;2023-02-23T10:12:11;66.10;;;36.55;;
55003;SDS011;40900;52.710;6.438;2023-02-23T10:14:59;65.70;;;35.95;;
55003;SDS011;40900;52.710;6.438;2023-02-23T10:17:36;65.57;;;35.40;;
55003;SDS011;40900;52.710;6.438;2023-02-23T10:20:26;68.22;;;37.00;;
55003;SDS011;40900;52.710;6.438;2023-02-23T10:23:14;61.70;;;34.67;;
55003;SDS011;40900;52.710;6.438;2023-02-23T10:25:46;62.13;;;35.22;;
55003;SDS011;40900;52.710;6.438;2023-02-23T10:28:14;67.18;;;35.25;;
55003;SDS011;40900;52.710;6.438;2023-02-23T10:30:43;63.55;;;34.28;;
55003;SDS011;40900;52.710;6.438;2023-02-23T10:33:12;61.20;;;33.13;;
55003;SDS011;40900;52.710;6.438;2023-02-23T10:35:46;60.60;;;33.65;;
55003;SDS011;40900;52.710;6.438;2023-02-23T10:38:14;61.85;;;32.15;;
55003;SDS011;40900;52.710;6.438;2023-02-23T10:40:44;66.63;;;33.65;;
55003;SDS011;40900;52.710;6.438;2023-02-23T10:43:13;61.97;;;34.47;;
55003;SDS011;40900;52.710;6.438;2023-02-23T10:45:44;60.33;;;34.20;;
55003;SDS011;40900;52.710;6.438;2023-02-23T10:48:18;65.88;;;34.42;;
55003;SDS011;40900;52.710;6.438;2023-02-23T10:50:49;54.28;;;31.38;;
55003;SDS011;40900;52.710;6.438;2023-02-23T10:53:21;62.60;;;32.72;;
55003;SDS011;40900;52.710;6.438;2023-02-23T10:58:47;50.90;;;28.70;;
55003;SDS011;40900;52.710;6.438;2023-02-23T11:01:35;46.08;;;26.80;;
55003;SDS011;40900;52.710;6.438;2023-02-23T11:04:19;44.03;;;24.83;;
55003;SDS011;40900;52.710;6.438;2023-02-23T11:06:48;38.00;;;21.48;;
55003;SDS011;40900;52.710;6.438;2023-02-23T11:11:57;30.88;;;19.38;;
55003;SDS011;40900;52.710;6.438;2023-02-23T11:14:50;33.13;;;19.65;;
55003;SDS011;40900;52.710;6.438;2023-02-23T11:17:33;30.08;;;19.05;;
55003;SDS011;40900;52.710;6.438;2023-02-23T11:20:05;33.65;;;19.35;;
55003;SDS011;40900;52.710;6.438;2023-02-23T11:22:41;28.98;;;17.88;;
55003;SDS011;40900;52.710;6.438;2023-02-23T11:25:14;34.17;;;19.15;;
55003;SDS011;40900;52.710;6.438;2023-02-23T11:27:54;33.15;;;19.10;;
55003;SDS011;40900;52.710;6.438;2023-02-23T11:30:33;34.15;;;20.48;;
55003;SDS011;40900;52.710;6.438;2023-02-23T11:33:02;35.00;;;21.70;;
55003;SDS011;40900;52.710;6.438;2023-02-23T11:35:35;36.25;;;21.98;;
55003;SDS011;40900;52.710;6.438;2023-02-23T11:41:04;44.75;;;24.38;;
55003;SDS011;40900;52.710;6.438;2023-02-23T11:43:46;45.75;;;24.30;;
55003;SDS011;40900;52.710;6.438;2023-02-23T11:46:13;42.75;;;24.65;;
55003;SDS011;40900;52.710;6.438;2023-02-23T11:51:23;49.08;;;26.20;;
55003;SDS011;40900;52.710;6.438;2023-02-23T11:53:57;49.50;;;27.55;;
55003;SDS011;40900;52.710;6.438;2023-02-23T11:56:24;49.38;;;27.42;;
55003;SDS011;40900;52.710;6.438;2023-02-23T11:58:54;50.67;;;26.75;;
55003;SDS011;40900;52.710;6.438;2023-02-23T12:01:43;49.20;;;28.83;;
55003;SDS011;40900;52.710;6.438;2023-02-23T12:07:03;53.55;;;28.42;;
55003;SDS011;40900;52.710;6.438;2023-02-23T12:09:44;50.95;;;28.95;;
55003;SDS011;40900;52.710;6.438;2023-02-23T12:12:13;54.38;;;28.00;;
55003;SDS011;40900;52.710;6.438;2023-02-23T12:14:50;51.55;;;28.00;;
55003;SDS011;40900;52.710;6.438;2023-02-23T12:17:22;56.30;;;28.70;;
55003;SDS011;40900;52.710;6.438;2023-02-23T12:20:05;50.55;;;28.08;;
55003;SDS011;40900;52.710;6.438;2023-02-23T12:22:45;53.80;;;28.33;;
55003;SDS011;40900;52.710;6.438;2023-02-23T12:28:21;54.38;;;28.77;;
55003;SDS011;40900;52.710;6.438;2023-02-23T12:38:59;56.65;;;29.25;;
55003;SDS011;40900;52.710;6.438;2023-02-23T12:41:42;58.88;;;29.30;;
55003;SDS011;40900;52.710;6.438;2023-02-23T12:44:21;61.80;;;30.00;;
55003;SDS011;40900;52.710;6.438;2023-02-23T12:50:02;65.95;;;30.75;;
55003;SDS011;40900;52.710;6.438;2023-02-23T12:52:48;66.50;;;30.30;;
55003;SDS011;40900;52.710;6.438;2023-02-23T12:55:20;61.08;;;30.17;;
55003;SDS011;40900;52.710;6.438;2023-02-23T12:58:13;69.10;;;31.90;;
55003;SDS011;40900;52.710;6.438;2023-02-23T13:01:43;67.05;;;31.05;;
55003;SDS011;40900;52.710;6.438;2023-02-23T13:15:45;72.00;;;31.40;;
55003;SDS011;40900;52.710;6.438;2023-02-23T13:18:25;69.72;;;31.90;;
55003;SDS011;40900;52.710;6.438;2023-02-23T13:20:57;71.45;;;31.00;;
55003;SDS011;40900;52.710;6.438;2023-02-23T13:26:20;70.63;;;31.33;;
55003;SDS011;40900;52.710;6.438;2023-02-23T13:31:46;76.43;;;33.65;;
55003;SDS011;40900;52.710;6.438;2023-02-23T13:34:15;70.05;;;32.28;;
55003;SDS011;40900;52.710;6.438;2023-02-23T13:36:50;73.13;;;32.33;;
55003;SDS011;40900;52.710;6.438;2023-02-23T13:50:43;62.88;;;27.60;;
55003;SDS011;40900;52.710;6.438;2023-02-23T13:55:52;64.20;;;28.65;;
55003;SDS011;40900;52.710;6.438;2023-02-23T13:58:28;59.10;;;25.30;;
55003;SDS011;40900;52.710;6.438;2023-02-23T14:01:13;65.90;;;27.38;;
55003;SDS011;40900;52.710;6.438;2023-02-23T14:03:43;59.38;;;26.23;;
55003;SDS011;40900;52.710;6.438;2023-02-23T14:06:12;62.70;;;27.00;;
55003;SDS011;40900;52.710;6.438;2023-02-23T14:08:42;67.30;;;25.70;;
55003;SDS011;40900;52.710;6.438;2023-02-23T14:11:10;61.70;;;26.08;;
55003;SDS011;40900;52.710;6.438;2023-02-23T14:14:13;64.70;;;26.02;;
55003;SDS011;40900;52.710;6.438;2023-02-23T14:22:35;62.40;;;27.13;;
55003;SDS011;40900;52.710;6.438;2023-02-23T14:27:58;72.18;;;28.60;;
55003;SDS011;40900;52.710;6.438;2023-02-23T14:30:28;68.78;;;27.73;;
55003;SDS011;40900;52.710;6.438;2023-02-23T14:33:07;69.68;;;28.00;;
55003;SDS011;40900;52.710;6.438;2023-02-23T14:35:59;68.10;;;27.67;;
55003;SDS011;40900;52.710;6.438;2023-02-23T14:40:58;68.70;;;28.63;;
55003;SDS011;40900;52.710;6.438;2023-02-23T14:46:02;68.13;;;27.33;;
55003;SDS011;40900;52.710;6.438;2023-02-23T14:48:32;72.35;;;27.50;;
55003;SDS011;40900;52.710;6.438;2023-02-23T14:51:10;49.22;;;18.45;;
55003;SDS011;40900;52.710;6.438;2023-02-23T14:53:44;52.67;;;17.45;;
55003;SDS011;40900;52.710;6.438;2023-02-23T14:56:17;46.63;;;16.80;;
55003;SDS011;40900;52.710;6.438;2023-02-23T14:58:52;24.77;;;8.60;;
55003;SDS011;40900;52.710;6.438;2023-02-23T15:01:35;15.68;;;5.28;;
55003;SDS011;40900;52.710;6.438;2023-02-23T15:04:06;16.73;;;4.38;;
55003;SDS011;40900;52.710;6.438;2023-02-23T15:06:34;11.68;;;3.75;;
55003;SDS011;40900;52.710;6.438;2023-02-23T15:09:01;19.17;;;4.38;;
55003;SDS011;40900;52.710;6.438;2023-02-23T15:11:26;22.35;;;4.85;;
55003;SDS011;40900;52.710;6.438;2023-02-23T15:13:55;18.95;;;4.13;;
55003;SDS011;40900;52.710;6.438;2023-02-23T15:16:26;19.35;;;4.30;;
55003;SDS011;40900;52.710;6.438;2023-02-23T15:18:59;26.48;;;4.75;;
55003;SDS011;40900;52.710;6.438;2023-02-23T15:21:27;27.63;;;5.10;;
55003;SDS011;40900;52.710;6.438;2023-02-23T15:23:58;25.13;;;4.80;;
55003;SDS011;40900;52.710;6.438;2023-02-23T15:26:35;26.08;;;4.95;;
55003;SDS011;40900;52.710;6.438;2023-02-23T15:31:35;24.20;;;5.55;;
55003;SDS011;40900;52.710;6.438;2023-02-23T15:34:07;27.90;;;5.72;;
55003;SDS011;40900;52.710;6.438;2023-02-23T15:36:35;31.40;;;5.32;;
55003;SDS011;40900;52.710;6.438;2023-02-23T15:39:05;32.30;;;5.65;;
55003;SDS011;40900;52.710;6.438;2023-02-23T15:41:36;28.42;;;6.00;;
55003;SDS011;40900;52.710;6.438;2023-02-23T15:44:20;33.05;;;6.18;;
55003;SDS011;40900;52.710;6.438;2023-02-23T15:46:53;32.97;;;6.05;;
55003;SDS011;40900;52.710;6.438;2023-02-23T15:49:21;38.10;;;6.65;;
55003;SDS011;40900;52.710;6.438;2023-02-23T15:51:56;34.40;;;6.30;;
55003;SDS011;40900;52.710;6.438;2023-02-23T15:54:31;38.80;;;7.05;;
55003;SDS011;40900;52.710;6.438;2023-02-23T15:57:03;35.10;;;6.80;;
55003;SDS011;40900;52.710;6.438;2023-02-23T15:59:36;39.67;;;6.93;;
55003;SDS011;40900;52.710;6.438;2023-02-23T16:02:08;42.20;;;6.53;;
55003;SDS011;40900;52.710;6.438;2023-02-23T16:04:47;46.50;;;7.30;;
55003;SDS011;40900;52.710;6.438;2023-02-23T16:07:18;32.63;;;5.55;;
55003;SDS011;40900;52.710;6.438;2023-02-23T16:12:23;37.75;;;6.18;;
55003;SDS011;40900;52.710;6.438;2023-02-23T16:15:00;37.47;;;6.60;;
55003;SDS011;40900;52.710;6.438;2023-02-23T16:22:40;45.92;;;7.45;;
55003;SDS011;40900;52.710;6.438;2023-02-23T16:25:13;39.90;;;5.88;;
55003;SDS011;40900;52.710;6.438;2023-02-23T16:27:42;42.20;;;6.80;;
55003;SDS011;40900;52.710;6.438;2023-02-23T16:35:44;47.35;;;8.18;;
55003;SDS011;40900;52.710;6.438;2023-02-23T16:40:51;33.55;;;6.35;;
55003;SDS011;40900;52.710;6.438;2023-02-23T16:43:17;32.08;;;6.03;;
55003;SDS011;40900;52.710;6.438;2023-02-23T16:45:44;42.90;;;6.25;;
55003;SDS011;40900;52.710;6.438;2023-02-23T16:48:14;34.97;;;6.18;;
55003;SDS011;40900;52.710;6.438;2023-02-23T16:50:42;36.13;;;5.95;;
55003;SDS011;40900;52.710;6.438;2023-02-23T16:53:09;43.35;;;6.80;;